Time;durP1;ratioP1;P1;durP2;ratioP2;P2;SDS_P1;SDS_P2;PMS_P1;PMS_P2;Temp;Humidity;BMP_temperature;BMP_pressure;BME280_temperature;BME280_humidity;BME280_pressure;Samples;Min_cycle;Max_cycle;Signal;HPM_P1;HPM_P2
2021/03/08 00:02:25;;;;;;;38.95;20.73;;;;;;;;;;5094288;28;20261;-62
2021/03/08 00:04:52;;;;;;;34.88;22.20;;;;;;;;;;5095300;28;20220;-61
2021/03/08 00:07:19;;;;;;;41.67;24.10;;;;;;;;;;5093976;28;20261;-62
2021/03/08 00:09:46;;;;;;;40.47;23.40;;;;;;;;;;5094969;28;20204;-61
2021/03/08 00:12:13;;;;;;;39.60;22.30;;;;;;;;;;5094728;28;20200;-62
2021/03/08 00:14:39;;;;;;;41.40;23.38;;;;;;;;;;5094784;28;20216;-62
2021/03/08 00:17:07;;;;;;;41.35;24.17;;;;;;;;;;5095036;28;20227;-60
2021/03/08 00:19:35;;;;;;;30.15;18.38;;;;;;;;;;5094256;28;20271;-62
2021/03/08 00:22:02;;;;;;;29.10;16.98;;;;;;;;;;5095042;28;20200;-61
2021/03/08 00:24:29;;;;;;;27.52;14.90;;;;;;;;;;5098609;28;20228;-61
2021/03/08 00:26:56;;;;;;;25.00;11.77;;;;;;;;;;5098388;28;20204;-62
2021/03/08 00:29:22;;;;;;;17.48;11.18;;;;;;;;;;5100736;28;20215;-63
2021/03/08 00:31:49;;;;;;;20.17;10.45;;;;;;;;;;5101070;28;20195;-61
2021/03/08 00:34:16;;;;;;;12.98;7.10;;;;;;;;;;5101944;28;20574;-61
2021/03/08 00:36:43;;;;;;;14.80;6.40;;;;;;;;;;5102972;28;20576;-61
2021/03/08 00:39:10;;;;;;;11.57;5.22;;;;;;;;;;5101382;28;20571;-61
2021/03/08 00:41:37;;;;;;;11.70;5.45;;;;;;;;;;5099525;28;20595;-61
2021/03/08 00:44:04;;;;;;;17.85;6.43;;;;;;;;;;5098129;28;20220;-61
2021/03/08 00:46:31;;;;;;;10.73;4.72;;;;;;;;;;5097755;28;20647;-62
2021/03/08 00:48:57;;;;;;;12.23;3.90;;;;;;;;;;5098508;28;20560;-62
2021/03/08 00:51:24;;;;;;;15.05;4.95;;;;;;;;;;5107649;28;20227;-61
2021/03/08 00:53:52;;;;;;;8.23;4.65;;;;;;;;;;5099143;28;20216;-62
2021/03/08 00:56:18;;;;;;;10.40;3.60;;;;;;;;;;5096904;28;20738;-62
2021/03/08 00:58:45;;;;;;;11.70;3.92;;;;;;;;;;5096875;28;20589;-62
2021/03/08 01:01:12;;;;;;;11.75;4.15;;;;;;;;;;5097151;28;20265;-61
2021/03/08 01:03:39;;;;;;;12.25;4.00;;;;;;;;;;5097090;28;20220;-61
2021/03/08 01:06:06;;;;;;;11.45;3.60;;;;;;;;;;5096869;28;20212;-61
2021/03/08 01:08:32;;;;;;;8.52;3.70;;;;;;;;;;5096778;28;20621;-63
2021/03/08 01:11:00;;;;;;;11.80;3.28;;;;;;;;;;5096967;28;20208;-62
2021/03/08 01:13:27;;;;;;;10.82;4.20;;;;;;;;;;5096713;28;20221;-62
2021/03/08 01:15:54;;;;;;;13.50;5.68;;;;;;;;;;5099187;28;20204;-62
2021/03/08 01:18:21;;;;;;;7.40;2.95;;;;;;;;;;5096548;28;20192;-62
2021/03/08 01:20:48;;;;;;;9.60;3.80;;;;;;;;;;5096926;28;20204;-62
2021/03/08 01:23:15;;;;;;;11.43;3.85;;;;;;;;;;5096736;28;20220;-61
2021/03/08 01:25:41;;;;;;;16.30;3.58;;;;;;;;;;5096838;28;20205;-62
2021/03/08 01:28:09;;;;;;;10.60;2.75;;;;;;;;;;5096746;28;20220;-62
2021/03/08 01:30:37;;;;;;;9.35;3.25;;;;;;;;;;5096586;28;20201;-62
2021/03/08 01:33:04;;;;;;;5.40;3.05;;;;;;;;;;5096242;28;20676;-62
2021/03/08 01:35:31;;;;;;;11.35;3.50;;;;;;;;;;5096021;28;20200;-61
2021/03/08 01:37:58;;;;;;;12.25;3.47;;;;;;;;;;5096035;28;20665;-62
2021/03/08 01:40:26;;;;;;;7.88;3.00;;;;;;;;;;5096125;28;20215;-62
2021/03/08 01:42:53;;;;;;;9.90;3.33;;;;;;;;;;5096362;28;20197;-62
2021/03/08 01:45:21;;;;;;;9.75;3.40;;;;;;;;;;5096272;28;20196;-61
2021/03/08 01:47:48;;;;;;;10.93;3.25;;;;;;;;;;5096518;28;20212;-61
2021/03/08 01:50:17;;;;;;;13.07;3.13;;;;;;;;;;5096377;28;20676;-62
2021/03/08 01:52:44;;;;;;;9.52;2.80;;;;;;;;;;5096837;28;20204;-62
2021/03/08 01:55:11;;;;;;;12.18;3.58;;;;;;;;;;5097152;28;20228;-61
2021/03/08 01:57:38;;;;;;;8.73;2.90;;;;;;;;;;5096516;28;20215;-62
2021/03/08 02:00:07;;;;;;;9.30;2.58;;;;;;;;;;5096053;28;20226;-62
2021/03/08 02:02:34;;;;;;;8.70;2.67;;;;;;;;;;5096085;28;20204;-61
2021/03/08 02:05:01;;;;;;;15.05;3.88;;;;;;;;;;5096115;28;20220;-62
2021/03/08 02:07:28;;;;;;;13.75;3.05;;;;;;;;;;5095887;28;20265;-62
2021/03/08 02:09:55;;;;;;;9.00;2.45;;;;;;;;;;5095830;28;20227;-61
2021/03/08 02:12:24;;;;;;;10.57;3.13;;;;;;;;;;5095709;28;20230;-61
2021/03/08 02:14:57;;;;;;;20.15;4.93;;;;;;;;;;5095701;28;20228;-62
2021/03/08 02:17:27;;;;;;;15.45;3.53;;;;;;;;;;5095505;28;20562;-62
2021/03/08 02:20:20;;;;;;;13.05;3.17;;;;;;;;;;5095802;28;20200;-61
2021/03/08 02:23:11;;;;;;;7.15;3.03;;;;;;;;;;5059930;28;20207;-61
2021/03/08 02:25:47;;;;;;;9.18;2.80;;;;;;;;;;5038679;28;20202;-61
2021/03/08 02:28:43;;;;;;;9.68;3.45;;;;;;;;;;5095555;28;20554;-61
2021/03/08 02:31:12;;;;;;;9.27;3.35;;;;;;;;;;5033671;28;20209;-61
2021/03/08 02:33:39;;;;;;;12.15;4.22;;;;;;;;;;5082539;28;20232;-61
2021/03/08 02:36:08;;;;;;;15.73;4.05;;;;;;;;;;5095813;28;20706;-62
2021/03/08 02:38:36;;;;;;;15.93;3.40;;;;;;;;;;5096004;28;20200;-62
2021/03/08 02:41:05;;;;;;;8.13;2.95;;;;;;;;;;5096132;28;20207;-62
2021/03/08 02:43:34;;;;;;;9.57;3.38;;;;;;;;;;5096267;28;20247;-62
2021/03/08 02:46:02;;;;;;;8.48;3.20;;;;;;;;;;5096177;28;20204;-62
2021/03/08 02:48:31;;;;;;;11.35;3.58;;;;;;;;;;5096202;28;20216;-61
2021/03/08 02:50:58;;;;;;;10.43;2.95;;;;;;;;;;5097727;28;20204;-62
2021/03/08 02:53:27;;;;;;;7.07;3.35;;;;;;;;;;5097775;28;20217;-61
2021/03/08 02:55:55;;;;;;;9.68;3.45;;;;;;;;;;5095412;28;20196;-61
2021/03/08 02:58:22;;;;;;;14.23;4.45;;;;;;;;;;5094990;28;20197;-62
2021/03/08 03:00:49;;;;;;;17.10;6.32;;;;;;;;;;5094708;28;20250;-61
2021/03/08 03:03:17;;;;;;;13.20;3.90;;;;;;;;;;5094642;28;20220;-62
2021/03/08 03:05:44;;;;;;;9.55;3.80;;;;;;;;;;5095164;28;20214;-61
2021/03/08 03:08:12;;;;;;;14.43;4.03;;;;;;;;;;5100013;28;20211;-61
2021/03/08 03:10:40;;;;;;;14.63;4.75;;;;;;;;;;5098366;28;20621;-62
2021/03/08 03:13:08;;;;;;;13.23;3.80;;;;;;;;;;5097661;28;20204;-62
2021/03/08 03:15:36;;;;;;;10.88;4.20;;;;;;;;;;5097523;28;20204;-61
2021/03/08 03:18:03;;;;;;;11.43;4.28;;;;;;;;;;5096950;28;20196;-61
2021/03/08 03:20:31;;;;;;;10.95;3.72;;;;;;;;;;5096506;28;20200;-61
2021/03/08 03:22:59;;;;;;;12.73;3.95;;;;;;;;;;5096675;28;20569;-62
2021/03/08 03:25:26;;;;;;;9.95;4.03;;;;;;;;;;5095686;28;20694;-62
2021/03/08 03:27:53;;;;;;;12.18;4.20;;;;;;;;;;5094026;28;20725;-61
2021/03/08 03:30:21;;;;;;;13.32;3.75;;;;;;;;;;5094361;28;20208;-62
2021/03/08 03:32:48;;;;;;;15.23;4.60;;;;;;;;;;5094321;28;20275;-62
2021/03/08 03:35:16;;;;;;;14.45;3.60;;;;;;;;;;5105870;28;20204;-62
2021/03/08 03:37:43;;;;;;;17.77;4.30;;;;;;;;;;5102905;28;20204;-62
2021/03/08 03:40:13;;;;;;;16.92;3.90;;;;;;;;;;5096492;28;20207;-63
2021/03/08 03:42:40;;;;;;;13.70;3.90;;;;;;;;;;5097169;28;20737;-61
2021/03/08 03:45:08;;;;;;;24.02;6.68;;;;;;;;;;5095769;28;20294;-62
2021/03/08 03:47:35;;;;;;;14.10;3.53;;;;;;;;;;5094646;28;20632;-62
2021/03/08 03:50:02;;;;;;;15.48;4.90;;;;;;;;;;5096430;28;20220;-62
2021/03/08 03:52:28;;;;;;;15.88;4.55;;;;;;;;;;5095912;28;20200;-62
2021/03/08 03:54:55;;;;;;;14.00;4.65;;;;;;;;;;5095498;28;20712;-61
2021/03/08 03:57:24;;;;;;;18.30;4.70;;;;;;;;;;5094630;28;20241;-62
2021/03/08 03:59:53;;;;;;;13.02;4.53;;;;;;;;;;5095268;28;20569;-62
2021/03/08 04:02:23;;;;;;;9.48;3.92;;;;;;;;;;5097540;28;20664;-62
2021/03/08 04:07:50;;;;;;;10.60;4.78;;;;;;;;;;5113020;27;20589;-61
2021/03/08 04:10:17;;;;;;;20.55;5.32;;;;;;;;;;5112356;28;20246;-62
2021/03/08 04:12:45;;;;;;;11.07;5.45;;;;;;;;;;5111925;28;20203;-63
2021/03/08 04:15:13;;;;;;;10.60;4.40;;;;;;;;;;5111369;28;20227;-62
2021/03/08 04:17:41;;;;;;;9.85;3.70;;;;;;;;;;5111963;28;20199;-61
2021/03/08 04:20:08;;;;;;;10.07;4.30;;;;;;;;;;5111825;28;20244;-61
2021/03/08 04:22:35;;;;;;;21.88;5.63;;;;;;;;;;5111712;28;20199;-62
2021/03/08 04:25:03;;;;;;;20.17;4.82;;;;;;;;;;5111576;28;20219;-62
2021/03/08 04:27:32;;;;;;;11.73;5.55;;;;;;;;;;5111425;28;20219;-62
2021/03/08 04:29:59;;;;;;;14.68;5.60;;;;;;;;;;5111279;28;20207;-62
2021/03/08 04:32:26;;;;;;;12.00;4.32;;;;;;;;;;5111032;28;20229;-63
2021/03/08 04:34:54;;;;;;;12.00;5.68;;;;;;;;;;5111838;28;20224;-62
2021/03/08 04:37:21;;;;;;;16.05;5.05;;;;;;;;;;5110988;28;20589;-61
2021/03/08 04:39:49;;;;;;;14.68;6.13;;;;;;;;;;5111146;28;20207;-63
2021/03/08 04:42:17;;;;;;;13.55;5.20;;;;;;;;;;5111130;28;20203;-61
2021/03/08 04:44:46;;;;;;;14.90;6.38;;;;;;;;;;5110728;28;20223;-62
2021/03/08 04:47:13;;;;;;;14.10;4.82;;;;;;;;;;5110649;28;20227;-63
2021/03/08 04:49:42;;;;;;;20.38;5.85;;;;;;;;;;5111129;28;20199;-61
2021/03/08 04:52:09;;;;;;;11.23;5.70;;;;;;;;;;5111190;28;20257;-62
2021/03/08 04:54:36;;;;;;;15.75;6.18;;;;;;;;;;5111062;28;20223;-61
2021/03/08 04:57:04;;;;;;;14.70;5.50;;;;;;;;;;5111097;28;20611;-61
2021/03/08 04:59:32;;;;;;;15.50;5.03;;;;;;;;;;5110971;28;20679;-62
2021/03/08 05:01:58;;;;;;;15.15;4.78;;;;;;;;;;5111299;28;20257;-61
2021/03/08 05:04:26;;;;;;;17.52;6.07;;;;;;;;;;5111696;28;20224;-62
2021/03/08 05:06:54;;;;;;;18.00;5.93;;;;;;;;;;5110829;28;20816;-62
2021/03/08 05:09:21;;;;;;;16.40;5.68;;;;;;;;;;5111121;28;20678;-62
2021/03/08 05:11:49;;;;;;;14.90;5.03;;;;;;;;;;5111699;28;20195;-62
2021/03/08 05:14:18;;;;;;;12.45;5.47;;;;;;;;;;5111368;28;20216;-62
2021/03/08 05:16:46;;;;;;;13.40;5.47;;;;;;;;;;5112933;28;20192;-61
2021/03/08 05:19:14;;;;;;;9.77;5.78;;;;;;;;;;5098880;28;20553;-62
2021/03/08 05:21:41;;;;;;;9.55;4.95;;;;;;;;;;5099471;28;20226;-62
2021/03/08 05:24:08;;;;;;;20.45;6.35;;;;;;;;;;5097727;28;20223;-60
2021/03/08 05:26:36;;;;;;;15.40;6.07;;;;;;;;;;5096322;28;20212;-62
2021/03/08 05:29:03;;;;;;;17.00;6.13;;;;;;;;;;5096486;28;20207;-61
2021/03/08 05:31:31;;;;;;;18.48;6.03;;;;;;;;;;5096115;28;20205;-61
2021/03/08 05:34:01;;;;;;;14.35;5.60;;;;;;;;;;5096451;28;20221;-61
2021/03/08 05:36:28;;;;;;;17.80;6.63;;;;;;;;;;5096110;28;20283;-61
2021/03/08 05:38:55;;;;;;;10.75;5.55;;;;;;;;;;5096422;28;20208;-62
2021/03/08 05:41:26;;;;;;;13.82;6.53;;;;;;;;;;5096077;28;20571;-60
2021/03/08 05:43:55;;;;;;;25.27;7.30;;;;;;;;;;5096238;28;20227;-61
2021/03/08 05:46:25;;;;;;;19.67;6.25;;;;;;;;;;5096011;28;20216;-61
2021/03/08 05:49:10;;;;;;;17.55;6.28;;;;;;;;;;5099870;28;20195;-62
2021/03/08 05:51:49;;;;;;;14.88;5.78;;;;;;;;;;5103588;28;20203;-62
2021/03/08 05:54:24;;;;;;;12.73;5.93;;;;;;;;;;5100259;28;20246;-61
2021/03/08 05:57:03;;;;;;;16.48;6.30;;;;;;;;;;5098740;28;20184;-60
2021/03/08 05:59:41;;;;;;;14.20;6.25;;;;;;;;;;5101766;28;20185;-62
2021/03/08 06:02:15;;;;;;;17.52;7.07;;;;;;;;;;5096514;28;20190;-61
2021/03/08 06:04:55;;;;;;;14.07;6.15;;;;;;;;;;5096864;28;20268;-61
2021/03/08 06:07:39;;;;;;;13.07;6.82;;;;;;;;;;5096014;28;20227;-62
2021/03/08 06:10:08;;;;;;;14.40;7.25;;;;;;;;;;5065515;28;20196;-62
2021/03/08 06:12:36;;;;;;;15.75;7.22;;;;;;;;;;5095575;28;20295;-62
2021/03/08 06:15:04;;;;;;;17.23;7.30;;;;;;;;;;5095900;28;20227;-61
2021/03/08 06:17:31;;;;;;;15.00;5.68;;;;;;;;;;5096603;28;20211;-61
2021/03/08 06:19:58;;;;;;;13.45;6.00;;;;;;;;;;5097422;28;20196;-62
2021/03/08 06:22:26;;;;;;;12.25;6.45;;;;;;;;;;5095850;28;20211;-62
2021/03/08 06:24:53;;;;;;;14.10;6.25;;;;;;;;;;5095351;28;20228;-62
2021/03/08 06:27:22;;;;;;;16.75;6.20;;;;;;;;;;5096052;28;20608;-61
2021/03/08 06:29:49;;;;;;;15.75;6.25;;;;;;;;;;5094609;28;20212;-62
2021/03/08 06:32:15;;;;;;;11.98;6.15;;;;;;;;;;5096325;28;20197;-61
2021/03/08 06:34:42;;;;;;;9.88;5.80;;;;;;;;;;5096290;28;20228;-60
2021/03/08 06:37:10;;;;;;;11.15;6.78;;;;;;;;;;5104540;28;20197;-62
2021/03/08 06:39:37;;;;;;;14.38;7.13;;;;;;;;;;5100842;28;20204;-62
2021/03/08 06:42:04;;;;;;;11.18;5.22;;;;;;;;;;5096942;28;20694;-61
2021/03/08 06:44:32;;;;;;;14.45;6.55;;;;;;;;;;5097615;28;20228;-60
2021/03/08 06:46:59;;;;;;;12.45;6.22;;;;;;;;;;5097036;28;20220;-62
2021/03/08 06:49:26;;;;;;;14.70;6.63;;;;;;;;;;5096769;28;20664;-61
2021/03/08 06:52:10;;;;;;;10.80;5.43;;;;;;;;;;5103326;28;20287;-61
2021/03/08 06:54:38;;;;;;;24.02;7.15;;;;;;;;;;5099253;28;20592;-61
2021/03/08 06:57:24;;;;;;;10.35;5.68;;;;;;;;;;5099591;28;20196;-61
2021/03/08 06:59:55;;;;;;;13.35;5.05;;;;;;;;;;5095808;28;20663;-61
2021/03/08 07:02:22;;;;;;;23.95;8.57;;;;;;;;;;5095589;28;20208;-62
2021/03/08 07:04:49;;;;;;;16.00;6.25;;;;;;;;;;5095588;28;20224;-62
2021/03/08 07:07:16;;;;;;;20.05;7.32;;;;;;;;;;5094843;28;20220;-61
2021/03/08 07:09:49;;;;;;;11.25;5.53;;;;;;;;;;5095497;28;20204;-62
2021/03/08 07:12:16;;;;;;;13.55;6.10;;;;;;;;;;5096288;28;20227;-62
2021/03/08 07:14:44;;;;;;;7.45;4.55;;;;;;;;;;5097172;28;20223;-63
2021/03/08 07:17:26;;;;;;;10.88;5.25;;;;;;;;;;5095987;28;20200;-62
2021/03/08 07:19:54;;;;;;;13.40;5.22;;;;;;;;;;5093050;28;20219;-60
2021/03/08 07:22:36;;;;;;;12.70;5.47;;;;;;;;;;5095204;28;20302;-61
2021/03/08 07:25:04;;;;;;;15.27;5.38;;;;;;;;;;5095430;28;20227;-61
2021/03/08 07:27:39;;;;;;;20.38;6.32;;;;;;;;;;5094928;28;20765;-61
2021/03/08 07:30:06;;;;;;;9.75;4.75;;;;;;;;;;5095807;28;20191;-61
2021/03/08 07:32:33;;;;;;;10.93;5.07;;;;;;;;;;5097096;28;20227;-61
2021/03/08 07:35:01;;;;;;;12.27;5.25;;;;;;;;;;5096511;28;20224;-60
2021/03/08 07:37:28;;;;;;;6.13;4.43;;;;;;;;;;5097015;28;20565;-61
2021/03/08 07:39:55;;;;;;;8.48;4.85;;;;;;;;;;5103483;28;20667;-61
2021/03/08 07:42:21;;;;;;;10.18;4.32;;;;;;;;;;5095727;28;20211;-61
2021/03/08 07:44:49;;;;;;;13.32;5.22;;;;;;;;;;5095548;28;20220;-60
2021/03/08 07:47:16;;;;;;;9.13;5.45;;;;;;;;;;5096025;28;20224;-60
2021/03/08 07:49:43;;;;;;;6.88;4.78;;;;;;;;;;5095893;28;20208;-61
2021/03/08 07:52:11;;;;;;;16.15;4.70;;;;;;;;;;5094945;28;20575;-62
2021/03/08 07:54:55;;;;;;;8.75;4.80;;;;;;;;;;5095573;28;20258;-61
2021/03/08 07:57:22;;;;;;;7.28;4.78;;;;;;;;;;5094538;28;20659;-60
2021/03/08 07:59:49;;;;;;;12.13;5.20;;;;;;;;;;5094184;28;20203;-61
2021/03/08 08:02:15;;;;;;;12.15;4.55;;;;;;;;;;5094338;28;20200;-59
2021/03/08 08:04:42;;;;;;;10.68;5.68;;;;;;;;;;5094014;28;20216;-61
2021/03/08 08:07:10;;;;;;;11.93;5.10;;;;;;;;;;5093808;28;20277;-63
2021/03/08 08:09:39;;;;;;;15.15;5.85;;;;;;;;;;5093768;28;20196;-60
2021/03/08 08:12:09;;;;;;;25.13;10.07;;;;;;;;;;5093716;28;20222;-60
2021/03/08 08:14:38;;;;;;;18.58;8.73;;;;;;;;;;5093998;28;20223;-61
2021/03/08 08:17:05;;;;;;;18.75;8.48;;;;;;;;;;5093855;28;20203;-60
2021/03/08 08:19:33;;;;;;;16.85;7.55;;;;;;;;;;5094379;28;20257;-62
2021/03/08 08:22:00;;;;;;;56.88;21.00;;;;;;;;;;5093909;28;20207;-63
2021/03/08 08:24:27;;;;;;;45.08;19.05;;;;;;;;;;5093918;28;20216;-62
2021/03/08 08:26:55;;;;;;;43.58;16.08;;;;;;;;;;5094401;28;20223;-61
2021/03/08 08:29:23;;;;;;;28.15;13.02;;;;;;;;;;5094741;28;20277;-61
2021/03/08 08:31:57;;;;;;;20.23;10.73;;;;;;;;;;5095070;28;20740;-62
2021/03/08 08:34:30;;;;;;;22.40;9.52;;;;;;;;;;5094776;28;20274;-60
2021/03/08 08:37:04;;;;;;;30.58;12.75;;;;;;;;;;5095018;28;20548;-60
2021/03/08 08:39:30;;;;;;;31.35;12.85;;;;;;;;;;5094381;28;20561;-61
2021/03/08 08:42:13;;;;;;;36.97;14.52;;;;;;;;;;5094111;28;20200;-62
2021/03/08 08:44:40;;;;;;;32.90;13.32;;;;;;;;;;5093490;28;20708;-62
2021/03/08 08:47:15;;;;;;;31.77;12.65;;;;;;;;;;5093790;28;20220;-61
2021/03/08 08:49:43;;;;;;;35.30;12.52;;;;;;;;;;5094179;28;20203;-61
2021/03/08 08:52:10;;;;;;;27.38;12.20;;;;;;;;;;5093842;28;20226;-61
2021/03/08 08:54:52;;;;;;;27.52;10.52;;;;;;;;;;5097351;28;20344;-62
2021/03/08 08:57:20;;;;;;;20.88;10.30;;;;;;;;;;5097184;28;20200;-61
2021/03/08 08:59:50;;;;;;;22.77;10.32;;;;;;;;;;5097877;28;20207;-61
2021/03/08 09:02:33;;;;;;;31.30;12.18;;;;;;;;;;5097920;28;20197;-62
2021/03/08 09:05:00;;;;;;;30.00;11.15;;;;;;;;;;5098463;28;20225;-62
2021/03/08 09:07:27;;;;;;;23.40;10.45;;;;;;;;;;5097752;28;20663;-62
2021/03/08 09:09:55;;;;;;;23.58;9.75;;;;;;;;;;5098042;28;20208;-63
2021/03/08 09:12:30;;;;;;;23.95;10.35;;;;;;;;;;5097654;28;20216;-61
2021/03/08 09:14:58;;;;;;;18.90;7.55;;;;;;;;;;5098680;28;20216;-60
2021/03/08 09:17:25;;;;;;;17.77;8.88;;;;;;;;;;5100476;28;20201;-62
2021/03/08 09:20:12;;;;;;;22.98;9.18;;;;;;;;;;5099017;28;20258;-61
2021/03/08 09:22:44;;;;;;;18.85;10.13;;;;;;;;;;5097508;28;20253;-62
2021/03/08 09:25:29;;;;;;;26.98;14.52;;;;;;;;;;5099536;28;20220;-62
2021/03/08 09:28:03;;;;;;;28.27;14.48;;;;;;;;;;5098675;28;20619;-63
2021/03/08 09:30:30;;;;;;;30.38;17.38;;;;;;;;;;5097498;28;20201;-61
2021/03/08 09:33:00;;;;;;;32.33;16.50;;;;;;;;;;5097293;28;20246;-60
2021/03/08 09:35:30;;;;;;;33.20;13.93;;;;;;;;;;5098351;28;20247;-61
2021/03/08 09:37:59;;;;;;;23.70;12.50;;;;;;;;;;5098173;28;20231;-61
2021/03/08 09:40:28;;;;;;;26.27;12.77;;;;;;;;;;5097723;28;20200;-60
2021/03/08 09:42:56;;;;;;;22.02;10.45;;;;;;;;;;5097824;28;20204;-60
2021/03/08 09:45:25;;;;;;;15.48;8.07;;;;;;;;;;5104662;28;20197;-62
2021/03/08 09:47:53;;;;;;;17.65;8.45;;;;;;;;;;5111400;28;20220;-61
2021/03/08 09:50:24;;;;;;;20.10;9.10;;;;;;;;;;5102722;28;20200;-62
2021/03/08 09:52:53;;;;;;;18.08;7.05;;;;;;;;;;5100099;28;20188;-62
2021/03/08 09:55:24;;;;;;;17.33;6.90;;;;;;;;;;5098427;28;20234;-62
2021/03/08 09:57:50;;;;;;;9.60;4.40;;;;;;;;;;5097211;28;20279;-61
2021/03/08 10:00:19;;;;;;;12.73;4.90;;;;;;;;;;5098480;28;20265;-62
2021/03/08 10:02:46;;;;;;;12.07;4.80;;;;;;;;;;5098554;28;20200;-62
2021/03/08 10:05:13;;;;;;;12.50;5.28;;;;;;;;;;5098312;28;20216;-62
2021/03/08 10:07:55;;;;;;;24.60;7.03;;;;;;;;;;5097244;28;20220;-62
2021/03/08 10:10:23;;;;;;;13.95;6.95;;;;;;;;;;5094919;28;20204;-60
2021/03/08 10:13:00;;;;;;;13.32;8.48;;;;;;;;;;5096850;28;20211;-63
2021/03/08 10:15:27;;;;;;;12.77;7.18;;;;;;;;;;5096706;28;20667;-61
2021/03/08 10:17:59;;;;;;;18.75;8.23;;;;;;;;;;5098271;28;20193;-61
2021/03/08 10:20:26;;;;;;;12.23;7.70;;;;;;;;;;5098574;28;20355;-62
2021/03/08 10:22:54;;;;;;;35.60;20.75;;;;;;;;;;5097671;28;20610;-61
2021/03/08 10:25:23;;;;;;;13.98;9.18;;;;;;;;;;5096826;28;20209;-61
2021/03/08 10:27:53;;;;;;;20.42;8.93;;;;;;;;;;5096522;28;20285;-61
2021/03/08 10:30:20;;;;;;;20.58;10.95;;;;;;;;;;5095999;28;20603;-62
2021/03/08 10:32:47;;;;;;;19.05;10.18;;;;;;;;;;5096145;28;20207;-61
2021/03/08 10:35:14;;;;;;;21.65;9.82;;;;;;;;;;5096052;28;20221;-60
2021/03/08 10:37:42;;;;;;;10.13;5.38;;;;;;;;;;5095937;28;20205;-62
2021/03/08 10:40:09;;;;;;;15.38;7.00;;;;;;;;;;5097916;28;20211;-62
2021/03/08 10:42:37;;;;;;;3.47;2.75;;;;;;;;;;5097303;28;20577;-61
2021/03/08 10:45:05;;;;;;;8.07;3.03;;;;;;;;;;5096237;28;20224;-62
2021/03/08 10:47:32;;;;;;;7.30;3.38;;;;;;;;;;5096051;28;20593;-62
2021/03/08 10:49:59;;;;;;;5.25;3.15;;;;;;;;;;5097033;28;20550;-62
2021/03/08 10:52:26;;;;;;;9.98;3.53;;;;;;;;;;5096255;28;20664;-62
2021/03/08 10:54:52;;;;;;;7.88;4.10;;;;;;;;;;5096686;28;20228;-63
2021/03/08 10:57:22;;;;;;;9.10;4.93;;;;;;;;;;5097293;28;20245;-62
2021/03/08 10:59:50;;;;;;;7.80;3.55;;;;;;;;;;5096446;28;20295;-63
2021/03/08 11:02:18;;;;;;;5.40;2.45;;;;;;;;;;5096523;28;20212;-60
2021/03/08 11:04:45;;;;;;;8.05;3.13;;;;;;;;;;5096108;28;20228;-61
2021/03/08 11:07:12;;;;;;;4.13;2.78;;;;;;;;;;5095747;28;20276;-63
2021/03/08 11:09:40;;;;;;;6.03;3.13;;;;;;;;;;5095610;28;20257;-62
2021/03/08 11:12:16;;;;;;;4.95;2.10;;;;;;;;;;5095311;28;20661;-61
2021/03/08 11:14:50;;;;;;;5.38;2.42;;;;;;;;;;5095711;28;20228;-64
2021/03/08 11:17:18;;;;;;;6.47;2.33;;;;;;;;;;5094588;28;20185;-61
2021/03/08 11:19:44;;;;;;;4.70;2.47;;;;;;;;;;5094683;28;20200;-62
2021/03/08 11:22:12;;;;;;;5.35;1.95;;;;;;;;;;5094960;28;20205;-62
2021/03/08 11:24:43;;;;;;;1.80;1.50;;;;;;;;;;5094747;28;20758;-63
2021/03/08 11:27:11;;;;;;;3.35;1.40;;;;;;;;;;5098215;28;20223;-63
2021/03/08 11:29:39;;;;;;;3.08;1.90;;;;;;;;;;5101291;28;20204;-62
2021/03/08 11:32:08;;;;;;;2.88;1.30;;;;;;;;;;5103946;28;20200;-63
2021/03/08 11:34:38;;;;;;;2.60;1.50;;;;;;;;;;5104138;28;20258;-63
2021/03/08 11:37:09;;;;;;;2.05;1.50;;;;;;;;;;5105559;28;20543;-64
2021/03/08 11:39:42;;;;;;;3.28;1.52;;;;;;;;;;5107293;28;20201;-64
2021/03/08 11:42:11;;;;;;;3.20;1.60;;;;;;;;;;5107142;28;20604;-62
2021/03/08 11:44:38;;;;;;;4.65;1.90;;;;;;;;;;5106747;28;20224;-62
2021/03/08 11:47:05;;;;;;;2.65;1.70;;;;;;;;;;5104420;28;20216;-63
2021/03/08 11:49:33;;;;;;;3.70;1.50;;;;;;;;;;5104294;28;20208;-63
2021/03/08 11:52:00;;;;;;;2.20;1.80;;;;;;;;;;5102476;28;20203;-62
2021/03/08 11:54:26;;;;;;;5.55;1.90;;;;;;;;;;5100116;28;20216;-63
2021/03/08 11:56:53;;;;;;;2.53;1.60;;;;;;;;;;5102144;28;20196;-62
2021/03/08 11:59:20;;;;;;;4.72;1.92;;;;;;;;;;5099725;28;20234;-63
2021/03/08 12:01:47;;;;;;;3.75;1.92;;;;;;;;;;5099472;28;20200;-62
2021/03/08 12:04:14;;;;;;;4.07;1.77;;;;;;;;;;5099512;28;20227;-61
2021/03/08 12:06:41;;;;;;;4.22;1.85;;;;;;;;;;5097769;28;20311;-62
2021/03/08 12:09:08;;;;;;;2.10;1.20;;;;;;;;;;5097033;28;20197;-64
2021/03/08 12:11:35;;;;;;;3.72;1.98;;;;;;;;;;5099004;28;20196;-63
2021/03/08 12:14:01;;;;;;;2.38;1.67;;;;;;;;;;5099643;28;20227;-62
2021/03/08 12:16:28;;;;;;;3.80;1.58;;;;;;;;;;5096928;28;20196;-61
2021/03/08 12:18:55;;;;;;;4.13;1.92;;;;;;;;;;5095934;28;20209;-63
2021/03/08 12:21:24;;;;;;;2.20;2.00;;;;;;;;;;5095781;28;20204;-63
2021/03/08 12:23:52;;;;;;;3.80;2.17;;;;;;;;;;5095104;28;20216;-61
2021/03/08 12:26:19;;;;;;;3.05;1.70;;;;;;;;;;5094984;28;20200;-61
2021/03/08 12:28:45;;;;;;;4.90;2.30;;;;;;;;;;5096490;28;20257;-62
2021/03/08 12:31:12;;;;;;;3.70;2.45;;;;;;;;;;5099340;28;20585;-60
2021/03/08 12:33:39;;;;;;;2.40;1.80;;;;;;;;;;5100331;28;20772;-60
2021/03/08 12:36:06;;;;;;;2.85;1.88;;;;;;;;;;5099990;28;20659;-62
2021/03/08 12:38:34;;;;;;;4.15;1.60;;;;;;;;;;5100081;28;20200;-62
2021/03/08 12:41:01;;;;;;;5.18;1.90;;;;;;;;;;5101076;28;20197;-62
2021/03/08 12:43:28;;;;;;;2.22;1.80;;;;;;;;;;5099804;28;20220;-63
2021/03/08 12:45:55;;;;;;;3.35;1.50;;;;;;;;;;5100867;28;20208;-62
2021/03/08 12:48:22;;;;;;;3.22;1.38;;;;;;;;;;5100461;28;20231;-62
2021/03/08 12:50:49;;;;;;;2.78;1.40;;;;;;;;;;5101092;28;20196;-61
2021/03/08 12:53:16;;;;;;;2.38;1.30;;;;;;;;;;5103230;28;20219;-62
2021/03/08 12:55:43;;;;;;;3.78;1.65;;;;;;;;;;5108416;28;20205;-63
2021/03/08 12:58:10;;;;;;;2.55;1.48;;;;;;;;;;5102060;28;20668;-62
2021/03/08 13:00:37;;;;;;;3.78;1.45;;;;;;;;;;5101552;28;20204;-61
2021/03/08 13:03:05;;;;;;;2.63;1.40;;;;;;;;;;5100251;28;20269;-65
2021/03/08 13:05:31;;;;;;;2.20;1.70;;;;;;;;;;5097836;28;20204;-62
2021/03/08 13:07:58;;;;;;;5.30;2.10;;;;;;;;;;5098867;28;20204;-62
2021/03/08 13:10:25;;;;;;;2.03;1.80;;;;;;;;;;5098466;28;20227;-63
2021/03/08 13:12:52;;;;;;;5.70;2.33;;;;;;;;;;5097843;28;20605;-63
2021/03/08 13:15:20;;;;;;;2.22;1.77;;;;;;;;;;5097725;28;20725;-62
2021/03/08 13:17:46;;;;;;;2.20;1.70;;;;;;;;;;5097844;28;20223;-62
2021/03/08 13:20:14;;;;;;;2.35;1.70;;;;;;;;;;5098246;28;20288;-64
2021/03/08 13:22:41;;;;;;;3.15;2.00;;;;;;;;;;5098307;28;20208;-61
2021/03/08 13:25:09;;;;;;;4.15;2.20;;;;;;;;;;5098161;28;20217;-63
2021/03/08 13:27:36;;;;;;;3.55;1.75;;;;;;;;;;5097392;28;20572;-61
2021/03/08 13:30:04;;;;;;;3.35;1.85;;;;;;;;;;5098021;28;20206;-61
2021/03/08 13:32:31;;;;;;;5.85;1.50;;;;;;;;;;5097987;28;20254;-62
2021/03/08 13:34:58;;;;;;;3.95;2.70;;;;;;;;;;5097223;28;20243;-62
2021/03/08 13:37:25;;;;;;;5.72;2.63;;;;;;;;;;5098282;28;20196;-62
2021/03/08 13:39:52;;;;;;;5.90;2.78;;;;;;;;;;5096808;28;20823;-61
2021/03/08 13:42:18;;;;;;;3.40;1.85;;;;;;;;;;5097393;28;20664;-62
2021/03/08 13:44:45;;;;;;;2.60;1.65;;;;;;;;;;5097398;28;20220;-63
2021/03/08 13:47:12;;;;;;;2.00;1.60;;;;;;;;;;5097210;28;20541;-63
2021/03/08 13:49:40;;;;;;;4.80;2.10;;;;;;;;;;5097577;28;20596;-62
2021/03/08 13:52:06;;;;;;;4.53;2.17;;;;;;;;;;5097760;28;20265;-61
2021/03/08 13:54:33;;;;;;;3.38;2.00;;;;;;;;;;5096828;28;20224;-63
2021/03/08 13:57:00;;;;;;;4.30;2.00;;;;;;;;;;5097895;28;20193;-62
2021/03/08 13:59:27;;;;;;;3.35;2.45;;;;;;;;;;5098538;28;20257;-61
2021/03/08 14:01:53;;;;;;;2.72;2.10;;;;;;;;;;5099487;28;20207;-63
2021/03/08 14:04:20;;;;;;;4.32;2.13;;;;;;;;;;5101058;28;20247;-63
2021/03/08 14:06:48;;;;;;;2.15;1.50;;;;;;;;;;5101029;28;20309;-61
2021/03/08 14:09:15;;;;;;;3.60;1.50;;;;;;;;;;5101155;28;20204;-62
2021/03/08 14:11:42;;;;;;;4.43;2.15;;;;;;;;;;5099434;28;20205;-62
2021/03/08 14:14:10;;;;;;;3.88;2.15;;;;;;;;;;5099153;28;20224;-62
2021/03/08 14:16:37;;;;;;;2.85;1.92;;;;;;;;;;5097974;28;20207;-63
2021/03/08 14:19:04;;;;;;;5.47;2.53;;;;;;;;;;5098677;28;20208;-62
2021/03/08 14:21:30;;;;;;;2.90;2.00;;;;;;;;;;5097098;28;20207;-64
2021/03/08 14:23:58;;;;;;;4.80;2.20;;;;;;;;;;5098790;28;20320;-61
2021/03/08 14:26:25;;;;;;;2.45;2.00;;;;;;;;;;5098614;28;20283;-62
2021/03/08 14:28:52;;;;;;;5.18;2.25;;;;;;;;;;5098512;28;20257;-63
2021/03/08 14:31:19;;;;;;;4.10;2.50;;;;;;;;;;5097188;28;20273;-62
2021/03/08 14:33:46;;;;;;;3.83;2.33;;;;;;;;;;5097066;28;20224;-62
2021/03/08 14:36:13;;;;;;;3.55;2.00;;;;;;;;;;5096553;28;20201;-59
2021/03/08 14:38:39;;;;;;;4.18;2.33;;;;;;;;;;5095750;28;20206;-62
2021/03/08 14:41:08;;;;;;;5.25;3.85;;;;;;;;;;5095802;28;20287;-62
2021/03/08 14:43:34;;;;;;;4.88;2.45;;;;;;;;;;5098356;28;20769;-60
2021/03/08 14:46:01;;;;;;;22.27;14.38;;;;;;;;;;5098289;28;20204;-62